createdAt,value
2016-10-15T00:00:16.809Z,96.12
2016-10-15T00:01:16.511Z,95.98
2016-10-15T00:02:16.282Z,96.31
2016-10-15T00:03:16.563Z,95.94
2016-10-15T00:04:17.351Z,95.41
2016-10-15T00:05:16.530Z,95.75
2016-10-15T00:06:16.395Z,95.36
2016-10-15T00:07:17.706Z,95.51
2016-10-15T00:08:16.983Z,95.56
2016-10-15T00:09:17.161Z,95.79
2016-10-15T00:10:16.512Z,95.32
2016-10-15T00:11:17.052Z,95.51
2016-10-15T00:12:16.651Z,95.6
2016-10-15T00:13:16.486Z,96.08
2016-10-15T00:14:16.626Z,96.12
2016-10-15T00:15:16.813Z,95.17
2016-10-15T00:16:17.225Z,95.79
2016-10-15T00:17:16.998Z,95.79
2016-10-15T00:18:18.030Z,95.56
2016-10-15T00:19:17.918Z,96.22
2016-10-15T00:20:17.237Z,95.22
2016-10-15T00:21:16.996Z,95.89
2016-10-15T00:22:16.968Z,95.94
2016-10-15T00:23:18.300Z,95.98
2016-10-15T00:24:17.025Z,96.08
2016-10-15T00:25:17.037Z,95.7
2016-10-15T00:26:16.500Z,95.51
2016-10-15T00:27:16.517Z,95.79
2016-10-15T00:28:16.962Z,94.74
2016-10-15T00:29:16.822Z,94.74
2016-10-15T00:30:16.634Z,94.84
2016-10-15T00:31:17.222Z,94.84
2016-10-15T00:32:16.798Z,94.84
2016-10-15T00:33:16.604Z,94.93
2016-10-15T00:34:16.596Z,94.93
2016-10-15T00:35:17.882Z,94.74
2016-10-15T00:36:16.764Z,94.84
2016-10-15T00:37:17.924Z,94.74
2016-10-15T00:38:17.224Z,95.03
2016-10-15T00:39:17.527Z,95.22
2016-10-15T00:40:17.949Z,94.65
2016-10-15T00:41:17.292Z,94.84
2016-10-15T00:42:17.686Z,94.56
2016-10-15T00:43:16.940Z,94.56
2016-10-15T00:44:17.823Z,94.84
2016-10-15T00:45:17.608Z,94.93
2016-10-15T00:46:17.964Z,94.46
2016-10-15T00:47:18.211Z,94.74
2016-10-15T00:48:16.754Z,94.65
2016-10-15T00:49:17.478Z,94.84
2016-10-15T00:50:18.208Z,94.65
2016-10-15T00:51:17.488Z,94.56
2016-10-15T00:52:18.211Z,94.65
2016-10-15T00:53:17.806Z,94.74
2016-10-15T00:54:18.069Z,94.84
2016-10-15T00:55:17.347Z,94.74
2016-10-15T00:56:17.825Z,94.74
2016-10-15T00:57:17.665Z,94.65
2016-10-15T00:58:18.212Z,95.41
2016-10-15T00:59:17.590Z,94.74
2016-10-15T01:00:17.910Z,95.03
2016-10-15T01:01:17.576Z,94.84
2016-10-15T01:02:18.227Z,95.12
2016-10-15T01:03:18.237Z,94.84
2016-10-15T01:04:17.453Z,94.93
2016-10-15T01:05:19.797Z,94.84
2016-10-15T01:06:17.571Z,95.89
2016-10-15T01:07:17.927Z,95.6
2016-10-15T01:08:17.729Z,95.79
2016-10-15T01:09:18.249Z,95.22
2016-10-15T01:10:18.381Z,95.03
2016-10-15T01:11:18.918Z,94.74
2016-10-15T01:12:18.053Z,95.79
2016-10-15T01:13:18.532Z,95.41
2016-10-15T01:14:18.020Z,95.6
2016-10-15T01:15:18.749Z,95.41
2016-10-15T01:16:18.217Z,95.89
2016-10-15T01:17:18.230Z,94.65
2016-10-15T01:18:18.759Z,94.65
2016-10-15T01:19:18.742Z,94.93
2016-10-15T01:20:17.983Z,94.74
2016-10-15T01:21:19.416Z,94.93
2016-10-15T01:22:17.520Z,95.12
2016-10-15T01:23:18.163Z,94.56
2016-10-15T01:24:18.481Z,95.22
2016-10-15T01:25:17.718Z,95.12
2016-10-15T01:26:18.344Z,95.03
2016-10-15T01:27:19.059Z,94.74
2016-10-15T01:28:18.713Z,94.84
2016-10-15T01:29:18.615Z,94.56
2016-10-15T01:30:17.810Z,94.84
2016-10-15T01:31:19.078Z,95.22
2016-10-15T01:32:18.161Z,94.84
2016-10-15T01:33:18.515Z,94.56
2016-10-15T01:34:17.809Z,94.93
2016-10-15T01:35:18.066Z,95.32
2016-10-15T01:36:18.379Z,95.51
2016-10-15T01:37:17.731Z,95.79
2016-10-15T01:38:18.714Z,95.7
2016-10-15T01:39:18.150Z,95.32
2016-10-15T01:40:17.748Z,95.6
2016-10-15T01:41:19.191Z,95.7
2016-10-15T01:42:19.462Z,95.51
2016-10-15T01:43:19.525Z,95.41
2016-10-15T01:44:17.913Z,95.22
2016-10-15T01:45:18.049Z,95.32
2016-10-15T01:46:18.996Z,95.98
2016-10-15T01:47:18.174Z,95.7
2016-10-15T01:48:19.108Z,96.46
2016-10-15T01:49:19.238Z,95.7
2016-10-15T01:50:18.493Z,96.17
2016-10-15T01:51:18.821Z,96.08
2016-10-15T01:52:19.629Z,96.17
2016-10-15T01:53:19.249Z,95.98
2016-10-15T01:54:18.780Z,96.36
2016-10-15T01:55:17.969Z,96.36
2016-10-15T01:56:18.584Z,96.55
2016-10-15T01:57:18.685Z,96.36
2016-10-15T01:58:18.784Z,96.17
2016-10-15T01:59:18.761Z,97.22
2016-10-15T02:00:19.414Z,96.84
2016-10-15T02:01:19.144Z,96.79
2016-10-15T02:02:18.405Z,96.69
2016-10-15T02:03:19.128Z,97.36
2016-10-15T02:04:19.911Z,97.36
2016-10-15T02:05:18.287Z,96.89
2016-10-15T02:06:18.263Z,97.17
2016-10-15T02:07:19.075Z,97.27
2016-10-15T02:08:18.668Z,97.17
2016-10-15T02:09:19.016Z,96.98
2016-10-15T02:10:18.946Z,97.55
2016-10-15T02:11:19.257Z,97.93
2016-10-15T02:12:19.248Z,98.03
2016-10-15T02:13:19.003Z,98.03
2016-10-15T02:14:18.801Z,98.88
2016-10-15T02:15:18.912Z,99.16
2016-10-15T02:16:18.606Z,99.16
2016-10-15T02:17:19.132Z,99.64
2016-10-15T02:18:18.673Z,99.55
2016-10-15T02:19:18.943Z,99.36
2016-10-15T02:20:19.050Z,99.69
2016-10-15T02:21:19.144Z,99.99
2016-10-15T02:22:19.117Z,99.99
2016-10-15T02:23:19.553Z,99.99
2016-10-15T02:24:18.784Z,99.99
2016-10-15T02:25:20.030Z,99.99
2016-10-15T02:26:19.641Z,99.99
2016-10-15T02:27:19.461Z,99.99
2016-10-15T02:28:19.097Z,99.99
2016-10-15T02:29:18.739Z,99.99
2016-10-15T02:30:19.000Z,99.99
2016-10-15T02:31:19.424Z,99.99
2016-10-15T02:32:26.450Z,99.99
2016-10-15T02:33:19.161Z,99.99
2016-10-15T02:34:19.697Z,99.99
2016-10-15T02:35:19.202Z,99.99
2016-10-15T02:36:18.613Z,99.99
2016-10-15T02:37:18.600Z,99.99
2016-10-15T02:38:18.678Z,99.99
2016-10-15T02:39:19.349Z,99.99
2016-10-15T02:40:18.921Z,99.99
2016-10-15T02:41:18.855Z,99.99
2016-10-15T02:42:19.087Z,99.99
2016-10-15T02:43:19.096Z,99.99
2016-10-15T02:44:19.284Z,99.99
2016-10-15T02:45:19.438Z,99.99
2016-10-15T02:46:18.944Z,99.99
2016-10-15T02:47:19.134Z,99.99
2016-10-15T02:48:19.247Z,99.99
2016-10-15T02:49:18.906Z,99.99
2016-10-15T02:50:19.282Z,99.99
2016-10-15T02:51:19.512Z,99.99
2016-10-15T02:52:20.142Z,99.99
2016-10-15T02:53:20.231Z,99.99
2016-10-15T02:54:19.594Z,99.99
2016-10-15T02:55:20.625Z,99.99
2016-10-15T02:56:19.705Z,99.99
2016-10-15T02:57:20.110Z,99.99
2016-10-15T02:58:20.014Z,99.99
2016-10-15T02:59:19.820Z,99.99
2016-10-15T03:00:19.201Z,99.99
2016-10-15T03:01:19.407Z,99.99
2016-10-15T03:02:19.987Z,99.99
2016-10-15T03:03:20.110Z,99.99
2016-10-15T03:04:19.441Z,99.99
2016-10-15T03:05:19.802Z,99.99
2016-10-15T03:06:20.177Z,99.99
2016-10-15T03:07:20.183Z,99.99
2016-10-15T03:08:19.615Z,99.99
2016-10-15T03:09:19.917Z,99.99
2016-10-15T03:10:19.364Z,99.99
2016-10-15T03:11:20.543Z,99.99
2016-10-15T03:12:19.913Z,99.99
2016-10-15T03:13:20.391Z,99.99
2016-10-15T03:14:20.125Z,99.99
2016-10-15T03:15:19.907Z,99.99
2016-10-15T03:16:19.286Z,99.99
2016-10-15T03:17:20.838Z,99.99
2016-10-15T03:18:20.034Z,99.99
2016-10-15T03:19:19.848Z,99.99
2016-10-15T03:20:20.102Z,99.99
2016-10-15T03:21:20.236Z,99.99
2016-10-15T03:22:20.940Z,99.99
2016-10-15T03:23:20.184Z,99.99
2016-10-15T03:24:19.848Z,99.99
2016-10-15T03:25:19.836Z,99.99
2016-10-15T03:26:19.959Z,99.99
2016-10-15T03:27:20.013Z,99.99
2016-10-15T03:28:20.757Z,99.99
2016-10-15T03:29:20.383Z,99.99
2016-10-15T03:30:20.722Z,99.99
2016-10-15T03:31:19.951Z,99.99
2016-10-15T03:32:19.903Z,99.99
2016-10-15T03:33:20.115Z,99.99
2016-10-15T03:34:20.471Z,99.99
2016-10-15T03:35:20.864Z,99.99
2016-10-15T03:36:20.618Z,99.99
2016-10-15T03:37:20.408Z,99.99
2016-10-15T03:38:20.324Z,99.99
2016-10-15T03:39:20.607Z,99.99
2016-10-15T03:40:20.066Z,99.99
2016-10-15T03:41:20.847Z,99.99
2016-10-15T03:42:20.419Z,99.99
2016-10-15T03:43:20.423Z,99.99
2016-10-15T03:44:20.831Z,99.99
2016-10-15T03:45:21.278Z,99.99
2016-10-15T03:46:20.532Z,99.99
2016-10-15T03:47:19.997Z,99.99
2016-10-15T03:48:20.547Z,99.99
2016-10-15T03:49:21.488Z,99.99
2016-10-15T03:50:20.442Z,99.99
2016-10-15T03:51:20.387Z,99.99
2016-10-15T03:52:21.429Z,99.99
2016-10-15T03:53:20.273Z,99.99
2016-10-15T03:54:20.156Z,99.99
2016-10-15T03:55:21.137Z,99.99
2016-10-15T03:56:20.638Z,99.99
2016-10-15T03:57:20.310Z,99.99
2016-10-15T03:58:20.657Z,99.99
2016-10-15T03:59:20.262Z,99.99
2016-10-15T04:00:20.473Z,99.99
2016-10-15T04:01:20.476Z,99.99
2016-10-15T04:02:20.608Z,99.99
2016-10-15T04:03:20.874Z,99.99
2016-10-15T04:04:20.249Z,99.99
2016-10-15T04:05:20.453Z,99.99
2016-10-15T04:06:20.319Z,99.99
2016-10-15T04:07:20.497Z,99.99
2016-10-15T04:08:21.349Z,99.99
2016-10-15T04:09:20.993Z,99.99
2016-10-15T04:10:20.196Z,99.99
2016-10-15T04:11:20.996Z,99.99
2016-10-15T04:12:21.036Z,99.99
2016-10-15T04:13:20.540Z,99.99
2016-10-15T04:14:20.903Z,99.99
2016-10-15T04:15:21.481Z,99.99
2016-10-15T04:16:21.345Z,99.99
2016-10-15T04:17:21.084Z,99.99
2016-10-15T04:18:20.317Z,99.99
2016-10-15T04:19:20.799Z,99.99
2016-10-15T04:20:21.085Z,99.99
2016-10-15T04:21:21.408Z,99.99
2016-10-15T04:22:21.221Z,99.99
2016-10-15T04:23:20.884Z,99.99
2016-10-15T04:24:21.015Z,99.99
2016-10-15T04:25:21.154Z,99.99
2016-10-15T04:26:21.509Z,99.99
2016-10-15T04:27:21.549Z,99.99
2016-10-15T04:28:21.304Z,99.99
2016-10-15T04:29:20.871Z,99.99
2016-10-15T04:30:21.071Z,99.99
2016-10-15T04:31:21.764Z,99.99
2016-10-15T04:32:20.671Z,99.99
2016-10-15T04:33:20.869Z,99.99
2016-10-15T04:34:21.492Z,99.99
2016-10-15T04:35:21.026Z,99.99
2016-10-15T04:36:21.310Z,99.99
2016-10-15T04:37:21.473Z,99.99
2016-10-15T04:38:21.820Z,99.99
2016-10-15T04:39:21.285Z,99.99
2016-10-15T04:40:21.810Z,99.99
2016-10-15T04:41:20.722Z,99.99
2016-10-15T04:42:20.743Z,99.99
2016-10-15T04:43:21.460Z,99.99
2016-10-15T04:44:20.772Z,99.99
2016-10-15T04:45:21.171Z,99.99
2016-10-15T04:46:21.559Z,99.99
2016-10-15T04:47:21.046Z,99.99
2016-10-15T04:48:21.162Z,99.99
2016-10-15T04:49:21.518Z,99.99
2016-10-15T04:50:22.108Z,99.99
2016-10-15T04:51:21.296Z,99.99
2016-10-15T04:52:21.634Z,99.99
2016-10-15T04:53:21.715Z,99.99
2016-10-15T04:54:21.782Z,99.99
2016-10-15T04:55:21.101Z,99.99
2016-10-15T04:56:21.858Z,99.99
2016-10-15T04:57:21.229Z,99.99
2016-10-15T04:58:22.550Z,99.99
2016-10-15T04:59:21.427Z,99.99
2016-10-15T05:00:21.500Z,99.99
2016-10-15T05:01:22.032Z,99.99
2016-10-15T05:02:21.209Z,99.99
2016-10-15T05:03:21.676Z,99.99
2016-10-15T05:04:22.576Z,99.99
2016-10-15T05:05:21.888Z,99.99
2016-10-15T05:06:21.849Z,99.99
2016-10-15T05:07:23.029Z,99.99
2016-10-15T05:08:21.547Z,99.99
2016-10-15T05:09:23.652Z,99.99
2016-10-15T05:10:21.955Z,99.99
2016-10-15T05:11:22.533Z,99.99
2016-10-15T05:12:21.960Z,99.99
2016-10-15T05:13:22.355Z,99.99
2016-10-15T05:14:21.567Z,99.99
2016-10-15T05:15:22.024Z,99.99
2016-10-15T05:16:22.566Z,99.99
2016-10-15T05:17:22.029Z,99.99
2016-10-15T05:18:22.669Z,99.99
2016-10-15T05:19:22.455Z,99.99
2016-10-15T05:20:22.059Z,99.99
2016-10-15T05:21:21.426Z,99.99
2016-10-15T05:22:22.293Z,99.99
2016-10-15T05:23:21.831Z,99.99
2016-10-15T05:24:22.889Z,99.99
2016-10-15T05:25:22.739Z,99.99
2016-10-15T05:26:21.943Z,99.99
2016-10-15T05:27:22.980Z,99.99
2016-10-15T05:28:21.898Z,99.99
2016-10-15T05:29:22.745Z,99.99
2016-10-15T05:30:22.888Z,99.99
2016-10-15T05:31:21.946Z,99.99
2016-10-15T05:32:22.077Z,99.99
2016-10-15T05:33:22.850Z,99.99
2016-10-15T05:34:23.097Z,99.99
2016-10-15T05:35:22.382Z,99.99
2016-10-15T05:36:22.065Z,99.99
2016-10-15T05:37:22.037Z,99.99
2016-10-15T05:38:22.608Z,99.99
2016-10-15T05:39:22.060Z,99.99
2016-10-15T05:40:22.513Z,99.99
2016-10-15T05:41:23.247Z,99.99
2016-10-15T05:42:21.973Z,99.99
2016-10-15T05:43:22.731Z,99.99
2016-10-15T05:44:21.785Z,99.99
2016-10-15T05:45:21.987Z,99.99
2016-10-15T05:46:22.377Z,99.99
2016-10-15T05:47:22.173Z,99.99
2016-10-15T05:48:22.093Z,99.99
2016-10-15T05:49:23.356Z,99.99
2016-10-15T05:50:23.006Z,99.99
2016-10-15T05:51:22.502Z,99.99
2016-10-15T05:52:22.612Z,99.99
2016-10-15T05:53:22.475Z,99.99
2016-10-15T05:54:22.331Z,99.99
2016-10-15T05:55:21.889Z,99.99
2016-10-15T05:56:22.365Z,99.99
2016-10-15T05:57:22.131Z,99.99
2016-10-15T05:58:22.624Z,99.99
2016-10-15T05:59:23.575Z,99.99
2016-10-15T06:00:22.665Z,99.99
2016-10-15T06:01:22.621Z,99.99
2016-10-15T06:02:22.516Z,99.99
2016-10-15T06:03:22.562Z,99.99
2016-10-15T06:04:22.598Z,99.99
2016-10-15T06:05:22.520Z,99.99
2016-10-15T06:06:22.996Z,99.99
2016-10-15T06:07:22.632Z,99.99
2016-10-15T06:08:22.121Z,99.99
2016-10-15T06:09:22.895Z,99.99
2016-10-15T06:10:22.812Z,99.99
2016-10-15T06:11:22.300Z,99.99
2016-10-15T06:12:23.417Z,99.99
2016-10-15T06:13:22.245Z,99.99
2016-10-15T06:14:23.902Z,99.99
2016-10-15T06:15:22.408Z,99.99
2016-10-15T06:16:23.303Z,99.99
2016-10-15T06:17:22.692Z,99.99
2016-10-15T06:18:22.784Z,99.99
2016-10-15T06:19:22.940Z,99.99
2016-10-15T06:20:22.595Z,99.99
2016-10-15T06:21:22.835Z,99.99
2016-10-15T06:22:22.671Z,99.99
2016-10-15T06:23:23.868Z,99.99
2016-10-15T06:24:22.859Z,99.99
2016-10-15T06:25:23.707Z,99.99
2016-10-15T06:26:22.695Z,99.99
2016-10-15T06:27:24.117Z,99.99
2016-10-15T06:28:22.665Z,99.99
2016-10-15T06:29:23.031Z,99.99
2016-10-15T06:30:23.497Z,99.99
2016-10-15T06:31:23.037Z,99.99
2016-10-15T06:32:23.030Z,99.99
2016-10-15T06:33:22.702Z,99.99
2016-10-15T06:34:23.658Z,99.99
2016-10-15T06:35:23.756Z,99.99
2016-10-15T06:36:22.709Z,99.99
2016-10-15T06:37:22.797Z,99.99
2016-10-15T06:38:22.792Z,99.99
2016-10-15T06:39:22.731Z,99.99
2016-10-15T06:40:23.716Z,99.99
2016-10-15T06:41:23.711Z,99.99
2016-10-15T06:42:23.838Z,99.99
2016-10-15T06:43:23.662Z,99.99
2016-10-15T06:44:23.023Z,99.99
2016-10-15T06:45:22.951Z,99.99
2016-10-15T06:46:23.497Z,99.99
2016-10-15T06:47:24.081Z,99.99
2016-10-15T06:48:23.133Z,99.99
2016-10-15T06:49:23.843Z,99.99
2016-10-15T06:50:23.590Z,99.99
2016-10-15T06:51:24.588Z,99.99
2016-10-15T06:52:23.205Z,99.99
2016-10-15T06:53:23.684Z,99.99
2016-10-15T06:54:22.803Z,99.99
2016-10-15T06:55:23.772Z,99.99
2016-10-15T06:56:24.784Z,99.99
2016-10-15T06:57:24.453Z,99.99
2016-10-15T06:58:23.275Z,99.99
2016-10-15T06:59:23.361Z,99.99
2016-10-15T07:00:23.323Z,99.99
2016-10-15T07:01:23.095Z,99.99
2016-10-15T07:02:23.031Z,99.99
2016-10-15T07:03:23.418Z,99.99
2016-10-15T07:04:23.576Z,99.99
2016-10-15T07:05:23.272Z,99.99
2016-10-15T07:06:23.708Z,99.99
2016-10-15T07:07:23.786Z,99.99
2016-10-15T07:08:23.861Z,99.99
2016-10-15T07:09:24.086Z,99.69
2016-10-15T07:10:24.332Z,99.02
2016-10-15T07:11:23.816Z,99.02
2016-10-15T07:12:23.413Z,98.83
2016-10-15T07:13:23.335Z,97.74
2016-10-15T07:14:23.667Z,97.55
2016-10-15T07:15:23.654Z,96.89
2016-10-15T07:16:23.562Z,97.27
2016-10-15T07:17:23.616Z,96.89
2016-10-15T07:18:23.942Z,97.27
2016-10-15T07:19:23.714Z,96.7
2016-10-15T07:20:23.941Z,96.6
2016-10-15T07:21:23.841Z,95.65
2016-10-15T07:22:23.596Z,96.03
2016-10-15T07:23:23.856Z,95.94
2016-10-15T07:24:23.528Z,95.89
2016-10-15T07:25:24.213Z,95.32
2016-10-15T07:26:24.567Z,94.93
2016-10-15T07:27:24.177Z,95.41
2016-10-15T07:28:24.177Z,95.51
2016-10-15T07:29:24.242Z,95.51
2016-10-15T07:30:25.084Z,96.08
2016-10-15T07:31:24.458Z,96.22
2016-10-15T07:32:24.360Z,96.36
2016-10-15T07:33:24.999Z,96.89
2016-10-15T07:34:24.284Z,97.08
2016-10-15T07:35:24.984Z,97.36
2016-10-15T07:36:24.593Z,97.46
2016-10-15T07:37:25.069Z,97.84
2016-10-15T07:38:24.391Z,98.32
2016-10-15T07:39:23.896Z,98.98
2016-10-15T07:40:24.532Z,98.32
2016-10-15T07:41:24.557Z,98.41
2016-10-15T07:42:24.083Z,98.88
2016-10-15T07:43:24.647Z,98.88
2016-10-15T07:44:24.233Z,98.6
2016-10-15T07:45:24.170Z,98.79
2016-10-15T07:46:24.601Z,98.69
2016-10-15T07:47:24.446Z,99.08
2016-10-15T07:48:24.802Z,98.69
2016-10-15T07:49:24.625Z,98.41
2016-10-15T07:50:24.192Z,98.13
2016-10-15T07:51:24.433Z,97.51
2016-10-15T07:52:24.577Z,97.17
2016-10-15T07:53:24.155Z,97.13
2016-10-15T07:54:24.222Z,97.31
2016-10-15T07:55:24.855Z,96.17
2016-10-15T07:56:25.016Z,96.27
2016-10-15T07:57:25.142Z,96.08
2016-10-15T07:58:24.334Z,95.7
2016-10-15T07:59:24.219Z,95.41
2016-10-15T08:00:25.020Z,94.84
2016-10-15T08:01:24.484Z,94.93
2016-10-15T08:02:24.467Z,94.46
2016-10-15T08:03:24.720Z,94.17
2016-10-15T08:04:24.252Z,93.93
2016-10-15T08:05:24.701Z,94.13
2016-10-15T08:06:24.194Z,94.03
2016-10-15T08:07:25.626Z,94.13
2016-10-15T08:08:25.247Z,94.6
2016-10-15T08:09:24.836Z,94.89
2016-10-15T08:10:24.793Z,94.7
2016-10-15T08:11:24.683Z,94.41
2016-10-15T08:12:25.100Z,95.56
2016-10-15T08:13:24.780Z,94.56
2016-10-15T08:14:24.760Z,94.7
2016-10-15T08:15:24.561Z,94.6
2016-10-15T08:16:25.118Z,95.08
2016-10-15T08:17:24.707Z,94.7
2016-10-15T08:18:25.261Z,94.7
2016-10-15T08:19:26.243Z,94.7
2016-10-15T08:20:25.327Z,94.98
2016-10-15T08:21:25.005Z,94.89
2016-10-15T08:22:24.802Z,94.51
2016-10-15T08:23:26.709Z,95.65
2016-10-15T08:24:24.796Z,95.46
2016-10-15T08:25:24.988Z,95.56
2016-10-15T08:26:25.247Z,95.08
2016-10-15T08:27:24.995Z,95.65
2016-10-15T08:28:27.049Z,95.36
2016-10-15T08:29:24.518Z,94.98
2016-10-15T08:30:25.447Z,95.75
2016-10-15T08:31:25.376Z,95.65
2016-10-15T08:32:25.420Z,95.56
2016-10-15T08:33:26.216Z,95.56
2016-10-15T08:34:26.977Z,95.46
2016-10-15T08:35:26.484Z,95.65
2016-10-15T08:36:26.537Z,95.65
2016-10-15T08:37:24.983Z,95.56
2016-10-15T08:38:24.678Z,94.89
2016-10-15T08:39:24.890Z,94.7
2016-10-15T08:40:25.160Z,94.41
2016-10-15T08:41:25.855Z,94.98
2016-10-15T08:42:25.054Z,94.6
2016-10-15T08:43:25.535Z,94.13
2016-10-15T08:44:24.699Z,94.32
2016-10-15T08:45:25.430Z,94.27
2016-10-15T08:46:27.337Z,94.08
2016-10-15T08:47:25.119Z,93.88
2016-10-15T08:48:25.784Z,93.32
2016-10-15T08:49:25.523Z,93.32
2016-10-15T08:50:26.236Z,92.74
2016-10-15T08:51:24.989Z,93.12
2016-10-15T08:52:26.344Z,93.03
2016-10-15T08:53:25.860Z,92.74
2016-10-15T08:54:25.089Z,92.74
2016-10-15T08:55:25.354Z,93.32
2016-10-15T08:56:25.509Z,92.93
2016-10-15T08:57:25.163Z,92.27
2016-10-15T08:58:25.664Z,92.84
2016-10-15T08:59:26.879Z,92.79
2016-10-15T09:00:25.534Z,92.6
2016-10-15T09:01:26.030Z,91.93
2016-10-15T09:02:25.664Z,92.41
2016-10-15T09:03:26.986Z,91.46
2016-10-15T09:04:25.970Z,91.07
2016-10-15T09:05:25.569Z,90.69
2016-10-15T09:06:25.659Z,89.69
2016-10-15T09:07:26.765Z,90.07
2016-10-15T09:08:27.226Z,89.88
2016-10-15T09:09:26.135Z,89.12
2016-10-15T09:10:26.216Z,89.31
2016-10-15T09:11:26.602Z,89.4
2016-10-15T09:12:25.734Z,89.21
2016-10-15T09:13:26.310Z,89.5
2016-10-15T09:14:26.668Z,89.31
2016-10-15T09:15:26.641Z,89.88
2016-10-15T09:16:25.675Z,89.31
2016-10-15T09:17:27.219Z,89.88
2016-10-15T09:18:25.683Z,89.78
2016-10-15T09:19:25.814Z,89.02
2016-10-15T09:20:25.899Z,89.4
2016-10-15T09:21:26.199Z,89.78
2016-10-15T09:22:25.872Z,88.3
2016-10-15T09:23:26.525Z,88.68
2016-10-15T09:24:26.837Z,88.2
2016-10-15T09:25:25.665Z,88.2
2016-10-15T09:26:26.318Z,88.3
2016-10-15T09:27:25.549Z,89.12
2016-10-15T09:28:25.934Z,89.88
2016-10-15T09:29:26.456Z,89.12
2016-10-15T09:30:26.580Z,88.11
2016-10-15T09:31:25.942Z,87.82
2016-10-15T09:32:26.900Z,88.49
2016-10-15T09:33:26.956Z,88.45
2016-10-15T09:34:26.214Z,88.68
2016-10-15T09:35:26.329Z,88.49
2016-10-15T09:36:27.072Z,88.68
2016-10-15T09:37:27.104Z,87.44
2016-10-15T09:38:26.421Z,88.2
2016-10-15T09:39:26.461Z,88.3
2016-10-15T09:40:26.977Z,88.97
2016-10-15T09:41:26.286Z,88.68
2016-10-15T09:42:26.876Z,89.16
2016-10-15T09:43:26.819Z,89.06
2016-10-15T09:44:26.730Z,89.16
2016-10-15T09:45:26.960Z,89.16
2016-10-15T09:46:27.358Z,89.25
2016-10-15T09:47:26.936Z,89.35
2016-10-15T09:48:26.835Z,89.54
2016-10-15T09:49:26.883Z,89.54
2016-10-15T09:50:27.227Z,89.16
2016-10-15T09:51:26.646Z,89.45
2016-10-15T09:52:27.602Z,89.25
2016-10-15T09:53:26.412Z,89.45
2016-10-15T09:54:26.331Z,90.31
2016-10-15T09:55:27.297Z,89.73
2016-10-15T09:56:27.447Z,89.83
2016-10-15T09:57:27.019Z,89.73
2016-10-15T09:58:26.640Z,90.02
2016-10-15T09:59:27.601Z,89.25
2016-10-15T10:00:26.830Z,89.45
2016-10-15T10:01:27.670Z,89.16
2016-10-15T10:02:26.827Z,89.35
2016-10-15T10:03:27.003Z,89.16
2016-10-15T10:04:27.057Z,88.78
2016-10-15T10:05:26.640Z,88.92
2016-10-15T10:06:26.771Z,88.63
2016-10-15T10:07:26.641Z,88.06
2016-10-15T10:08:27.153Z,87.87
2016-10-15T10:09:27.089Z,87.58
2016-10-15T10:10:26.671Z,87.58
2016-10-15T10:11:27.217Z,87.29
2016-10-15T10:12:28.204Z,87.01
2016-10-15T10:13:27.217Z,87.2
2016-10-15T10:14:27.398Z,88.25
2016-10-15T10:15:27.692Z,88.06
2016-10-15T10:16:26.858Z,88.54
2016-10-15T10:17:27.171Z,88.34
2016-10-15T10:18:26.967Z,88.15
2016-10-15T10:19:26.840Z,88.82
2016-10-15T10:20:27.473Z,88.92
2016-10-15T10:21:27.335Z,89.11
2016-10-15T10:22:27.369Z,89.2
2016-10-15T10:23:27.071Z,89.68
2016-10-15T10:24:26.852Z,89.35
2016-10-15T10:25:27.868Z,89.49
2016-10-15T10:26:27.723Z,89.2
2016-10-15T10:27:27.538Z,89.2
2016-10-15T10:28:27.736Z,89.2
2016-10-15T10:29:27.533Z,89.68
2016-10-15T10:30:27.425Z,89.01
2016-10-15T10:31:27.329Z,89.2
2016-10-15T10:32:27.153Z,90.06
2016-10-15T10:33:27.646Z,89.97
2016-10-15T10:34:27.861Z,90.16
2016-10-15T10:35:27.497Z,90.06
2016-10-15T10:36:27.657Z,90.64
2016-10-15T10:37:27.582Z,90.45
2016-10-15T10:38:27.151Z,90.73
2016-10-15T10:39:28.524Z,90.54
2016-10-15T10:40:27.623Z,90.45
2016-10-15T10:41:27.341Z,90.54
2016-10-15T10:42:27.758Z,90.45
2016-10-15T10:43:27.672Z,89.78
2016-10-15T10:44:27.221Z,90.35
2016-10-15T10:45:28.543Z,90.64
2016-10-15T10:46:28.702Z,89.59
2016-10-15T10:47:27.973Z,89.78
2016-10-15T10:48:28.041Z,89.78
2016-10-15T10:49:27.833Z,90.35
2016-10-15T10:50:28.352Z,90.35
2016-10-15T10:51:28.313Z,89.87
2016-10-15T10:52:27.839Z,90.25
2016-10-15T10:53:27.696Z,91.02
2016-10-15T10:54:28.516Z,91.26
2016-10-15T10:55:27.584Z,90.88
2016-10-15T10:56:28.498Z,91.07
2016-10-15T10:57:27.650Z,91.07
2016-10-15T10:58:27.760Z,91.64
2016-10-15T10:59:28.202Z,90.69
2016-10-15T11:00:28.219Z,91.07
2016-10-15T11:01:28.132Z,91.55
2016-10-15T11:02:29.163Z,91.93
2016-10-15T11:03:28.593Z,91.97
2016-10-15T11:04:27.722Z,92.55
2016-10-15T11:05:28.084Z,91.3
2016-10-15T11:06:29.093Z,91.88
2016-10-15T11:07:28.867Z,91.97
2016-10-15T11:08:27.817Z,91.11
2016-10-15T11:09:28.520Z,90.78
2016-10-15T11:10:28.862Z,92.16
2016-10-15T11:11:28.888Z,91.59
2016-10-15T11:12:28.052Z,91.21
2016-10-15T11:13:28.806Z,91.3
2016-10-15T11:14:28.011Z,91.21
2016-10-15T11:15:28.698Z,91.4
2016-10-15T11:16:28.968Z,91.5
2016-10-15T11:17:28.961Z,91.59
2016-10-15T11:18:29.379Z,91.4
2016-10-15T11:19:28.394Z,91.97
2016-10-15T11:20:29.374Z,91.3
2016-10-15T11:21:28.715Z,91.97
2016-10-15T11:22:29.148Z,92.55
2016-10-15T11:23:28.183Z,92.07
2016-10-15T11:24:29.373Z,91.88
2016-10-15T11:25:28.633Z,91.88
2016-10-15T11:26:28.632Z,91.11
2016-10-15T11:27:28.326Z,91.06
2016-10-15T11:28:28.105Z,90.97
2016-10-15T11:29:30.081Z,90.97
2016-10-15T11:30:28.496Z,89.92
2016-10-15T11:31:29.091Z,90.49
2016-10-15T11:32:29.274Z,90.39
2016-10-15T11:33:29.251Z,90.3
2016-10-15T11:34:28.422Z,90.11
2016-10-15T11:35:28.235Z,89.82
2016-10-15T11:36:30.031Z,90.11
2016-10-15T11:37:28.953Z,89.73
2016-10-15T11:38:28.600Z,89.96
2016-10-15T11:39:29.605Z,90.06
2016-10-15T11:40:30.078Z,89.1
2016-10-15T11:41:29.925Z,88.05
2016-10-15T11:42:30.192Z,88.34
2016-10-15T11:43:29.764Z,89.29
2016-10-15T11:44:30.425Z,90.34
2016-10-15T11:45:29.404Z,89.77
2016-10-15T11:46:29.516Z,88.24
2016-10-15T11:47:28.660Z,88.43
2016-10-15T11:48:28.710Z,88.34
2016-10-15T11:49:28.576Z,88.24
2016-10-15T11:50:29.131Z,88.91
2016-10-15T11:51:28.997Z,88.72
2016-10-15T11:52:29.699Z,89.29
2016-10-15T11:53:29.091Z,89.58
2016-10-15T11:54:29.332Z,89.29
2016-10-15T11:55:29.223Z,89.39
2016-10-15T11:56:29.345Z,89.25
2016-10-15T11:57:29.439Z,90.01
2016-10-15T11:58:29.106Z,89.82
2016-10-15T11:59:29.117Z,90.2
2016-10-15T12:00:29.771Z,90.78
2016-10-15T12:01:30.112Z,90.78
2016-10-15T12:02:29.731Z,90.49
2016-10-15T12:03:30.867Z,90.59
2016-10-15T12:04:30.271Z,90.97
2016-10-15T12:05:29.271Z,91.06
2016-10-15T12:06:31.096Z,91.06
2016-10-15T12:07:29.481Z,90.49
2016-10-15T12:08:29.272Z,90.88
2016-10-15T12:09:30.003Z,90.97
2016-10-15T12:10:29.500Z,91.35
2016-10-15T12:11:30.487Z,90.88
2016-10-15T12:12:30.150Z,90.68
2016-10-15T12:13:29.600Z,90.88
2016-10-15T12:14:29.992Z,91.06
2016-10-15T12:15:29.632Z,91.45
2016-10-15T12:16:29.757Z,91.54
2016-10-15T12:17:30.358Z,92.02
2016-10-15T12:18:29.902Z,92.11
2016-10-15T12:19:29.603Z,92.07
2016-10-15T12:20:30.561Z,91.25
2016-10-15T12:21:29.498Z,91.78
2016-10-15T12:22:29.727Z,91.97
2016-10-15T12:23:30.481Z,92.07
2016-10-15T12:24:30.061Z,91.59
2016-10-15T12:25:29.505Z,92.26
2016-10-15T12:26:29.374Z,92.26
2016-10-15T12:27:30.361Z,92.26
2016-10-15T12:28:30.363Z,91.97
2016-10-15T12:29:29.707Z,92.07
2016-10-15T12:30:29.827Z,92.07
2016-10-15T12:31:29.535Z,92.07
2016-10-15T12:32:30.058Z,92.55
2016-10-15T12:33:30.266Z,91.88
2016-10-15T12:34:30.148Z,92.55
2016-10-15T12:35:30.241Z,92.36
2016-10-15T12:36:29.551Z,92.16
2016-10-15T12:37:30.499Z,91.74
2016-10-15T12:38:29.754Z,91.78
2016-10-15T12:39:29.387Z,91.97
2016-10-15T12:40:29.554Z,91.54
2016-10-15T12:41:30.269Z,91.93
2016-10-15T12:42:30.943Z,92.11
2016-10-15T12:43:29.948Z,92.02
2016-10-15T12:44:29.752Z,91.93
2016-10-15T12:45:30.231Z,92.02
2016-10-15T12:46:30.287Z,92.11
2016-10-15T12:47:30.057Z,92.16
2016-10-15T12:48:30.085Z,91.88
2016-10-15T12:49:29.852Z,92.07
2016-10-15T12:50:30.283Z,92.26
2016-10-15T12:51:30.235Z,92.26
2016-10-15T12:52:29.984Z,92.36
2016-10-15T12:53:29.919Z,92.55
2016-10-15T12:54:30.179Z,93.02